createdAt,value
2019-02-19T00:00:03.865Z,63.65
2019-02-19T00:05:10.971Z,58.85
2019-02-19T00:10:16.462Z,56.35
2019-02-19T00:15:22.023Z,57.03
2019-02-19T00:20:27.606Z,50.58
2019-02-19T00:25:33.164Z,52.08
2019-02-19T00:30:38.722Z,45.20
2019-02-19T00:35:44.217Z,50.65
2019-02-19T00:40:49.675Z,49.30
2019-02-19T00:45:55.147Z,45.67
2019-02-19T00:50:59.866Z,45.55
2019-02-19T00:56:05.358Z,46.00
2019-02-19T01:01:10.923Z,44.73
2019-02-19T01:06:16.489Z,45.95
2019-02-19T01:11:22.106Z,43.60
2019-02-19T01:16:27.655Z,42.03
2019-02-19T01:21:33.197Z,38.95
2019-02-19T01:26:38.693Z,44.03
2019-02-19T01:31:44.169Z,46.65
2019-02-19T01:36:49.732Z,47.48
2019-02-19T01:41:55.211Z,46.88
2019-02-19T01:47:00.684Z,44.18
2019-02-19T01:52:06.171Z,40.80
2019-02-19T01:57:11.652Z,43.60
2019-02-19T02:02:17.117Z,41.08
2019-02-19T02:07:22.649Z,49.33
2019-02-19T02:12:28.143Z,49.77
2019-02-19T02:17:33.620Z,43.83
2019-02-19T02:22:39.083Z,47.40
2019-02-19T02:27:44.637Z,43.10
2019-02-19T02:32:50.180Z,42.05
2019-02-19T02:37:55.651Z,42.03
2019-02-19T02:43:01.124Z,40.25
2019-02-19T02:48:06.661Z,36.58
2019-02-19T02:53:12.145Z,42.00
2019-02-19T02:58:17.945Z,40.50
2019-02-19T03:03:23.404Z,42.85
2019-02-19T03:08:28.941Z,37.65
2019-02-19T03:13:34.420Z,40.52
2019-02-19T03:18:39.911Z,39.03
2019-02-19T03:23:46.347Z,43.10
2019-02-19T03:28:51.894Z,40.03
2019-02-19T03:33:57.443Z,41.30
2019-02-19T03:39:04.609Z,42.38
2019-02-19T03:44:10.166Z,39.75
2019-02-19T03:49:15.717Z,37.20
2019-02-19T03:54:21.285Z,39.85
2019-02-19T03:59:26.904Z,38.98
2019-02-19T04:04:32.387Z,38.23
2019-02-19T04:09:37.991Z,38.45
2019-02-19T04:14:43.537Z,37.35
2019-02-19T04:19:49.022Z,35.05
2019-02-19T04:24:54.505Z,35.95
2019-02-19T04:30:00.314Z,34.78
2019-02-19T04:35:07.974Z,36.50
2019-02-19T04:40:13.441Z,34.23
2019-02-19T04:45:18.920Z,34.27
2019-02-19T04:50:24.414Z,32.25
2019-02-19T04:55:29.885Z,31.97
2019-02-19T05:00:35.497Z,33.35
2019-02-19T05:05:40.985Z,31.33
2019-02-19T05:10:46.608Z,29.97
2019-02-19T05:15:52.105Z,26.60
2019-02-19T05:20:57.585Z,29.32
2019-02-19T05:26:03.146Z,30.57
2019-02-19T05:31:08.612Z,27.30
2019-02-19T05:36:14.159Z,26.17
2019-02-19T05:41:19.637Z,27.52
2019-02-19T05:46:25.116Z,27.70
2019-02-19T05:51:30.599Z,26.37
2019-02-19T05:56:37.142Z,29.50
2019-02-19T06:01:42.655Z,30.88
2019-02-19T06:06:48.414Z,29.37
2019-02-19T06:11:53.890Z,30.93
2019-02-19T06:16:59.497Z,31.95
2019-02-19T06:22:05.101Z,30.35
2019-02-19T06:27:10.563Z,29.27
2019-02-19T06:32:26.097Z,28.27
2019-02-19T06:37:31.588Z,29.02
2019-02-19T06:42:37.129Z,28.25
2019-02-19T06:47:42.613Z,28.70
2019-02-19T06:52:48.099Z,31.75
2019-02-19T06:57:53.588Z,32.08
2019-02-19T07:03:06.764Z,29.67
2019-02-19T07:08:12.323Z,30.32
2019-02-19T07:13:17.800Z,29.30
2019-02-19T07:18:23.277Z,30.52
2019-02-19T07:23:28.869Z,29.72
2019-02-19T07:28:34.488Z,31.73
2019-02-19T07:33:40.053Z,31.55
2019-02-19T07:38:45.620Z,30.48
2019-02-19T07:43:51.204Z,30.37
2019-02-19T07:48:56.756Z,31.45
2019-02-19T07:54:03.488Z,32.88
2019-02-19T07:59:08.990Z,29.07
2019-02-19T08:04:14.497Z,28.17
2019-02-19T08:09:20.297Z,29.65
2019-02-19T08:14:25.780Z,31.17
2019-02-19T08:19:31.393Z,29.82
2019-02-19T08:24:36.876Z,28.90
2019-02-19T08:29:42.432Z,25.97
2019-02-19T08:34:47.914Z,26.25
2019-02-19T08:39:53.454Z,22.15
2019-02-19T08:44:58.931Z,20.85
2019-02-19T08:50:06.364Z,21.40
2019-02-19T08:55:12.045Z,20.60
2019-02-19T09:00:17.701Z,19.75
2019-02-19T09:05:23.185Z,19.30
2019-02-19T09:10:28.672Z,20.57
2019-02-19T09:15:34.152Z,19.50
2019-02-19T09:20:39.850Z,18.05
2019-02-19T09:25:45.414Z,18.70
2019-02-19T09:30:50.976Z,18.73
2019-02-19T09:35:56.518Z,18.80
2019-02-19T09:41:02.077Z,17.98
2019-02-19T09:46:07.561Z,17.77
2019-02-19T09:51:13.492Z,17.23
2019-02-19T09:56:18.992Z,16.32
2019-02-19T10:01:24.475Z,17.55
2019-02-19T10:06:30.142Z,17.57
2019-02-19T10:11:35.639Z,17.55
2019-02-19T10:16:41.835Z,17.37
2019-02-19T10:21:47.845Z,18.35
2019-02-19T10:26:53.413Z,18.27
2019-02-19T10:31:58.968Z,18.07
2019-02-19T10:37:04.604Z,17.87
2019-02-19T10:42:10.086Z,18.30
2019-02-19T10:47:15.567Z,17.00
2019-02-19T10:52:21.111Z,18.32
2019-02-19T10:57:26.640Z,18.70
2019-02-19T11:02:32.125Z,18.50
2019-02-19T11:07:37.670Z,18.80
2019-02-19T11:12:43.216Z,19.35
2019-02-19T11:17:48.724Z,18.67
2019-02-19T11:22:55.285Z,17.87
2019-02-19T11:28:00.882Z,18.90
2019-02-19T11:33:06.375Z,18.30
2019-02-19T11:38:12.034Z,18.10
2019-02-19T11:43:17.696Z,18.27
2019-02-19T11:48:23.181Z,18.42
2019-02-19T11:53:28.666Z,16.32
2019-02-19T11:58:34.224Z,17.57
2019-02-19T12:03:39.717Z,19.57
2019-02-19T12:08:45.202Z,19.23
2019-02-19T12:13:50.830Z,18.17
2019-02-19T12:18:56.301Z,17.92
2019-02-19T12:24:01.937Z,18.98
2019-02-19T12:29:07.406Z,17.00
2019-02-19T12:34:12.921Z,16.95
2019-02-19T12:39:18.427Z,17.77
2019-02-19T12:44:23.919Z,17.27
2019-02-19T12:49:29.473Z,16.67
2019-02-19T12:54:35.041Z,16.75
2019-02-19T12:59:40.603Z,15.65
2019-02-19T13:04:46.092Z,14.40
2019-02-19T13:09:51.837Z,15.83
2019-02-19T13:14:57.333Z,16.12
2019-02-19T13:20:02.970Z,17.10
2019-02-19T13:25:10.759Z,16.80
2019-02-19T13:30:22.594Z,17.98
2019-02-19T13:35:28.155Z,16.85
2019-02-19T13:40:34.684Z,16.50
2019-02-19T13:45:40.290Z,14.85
2019-02-19T13:50:45.897Z,14.58
2019-02-19T13:55:53.082Z,15.13
2019-02-19T14:00:58.568Z,17.82
2019-02-19T14:06:04.121Z,17.23
2019-02-19T14:11:09.619Z,15.48
2019-02-19T14:16:16.761Z,15.15
2019-02-19T14:21:38.951Z,15.08
2019-02-19T14:27:03.371Z,16.55
2019-02-19T14:32:19.591Z,15.13
2019-02-19T14:37:29.725Z,17.15
2019-02-19T14:42:55.734Z,16.45
2019-02-19T14:48:08.688Z,16.07
2019-02-19T14:53:15.863Z,14.35
2019-02-19T14:58:39.300Z,17.00
2019-02-19T15:03:48.990Z,16.95
2019-02-19T15:09:02.170Z,16.65
2019-02-19T15:14:19.619Z,17.20
2019-02-19T15:19:27.815Z,15.90
2019-02-19T15:24:37.456Z,17.70
2019-02-19T15:29:44.586Z,17.50
2019-02-19T15:35:06.748Z,17.65
2019-02-19T15:40:22.791Z,17.98
2019-02-19T15:46:00.113Z,17.77
2019-02-19T15:51:10.096Z,19.73
2019-02-19T15:56:17.805Z,19.52
2019-02-19T16:01:40.197Z,18.77
2019-02-19T16:06:47.385Z,19.92
2019-02-19T16:11:54.573Z,23.65
2019-02-19T16:17:18.070Z,20.57
2019-02-19T16:22:28.061Z,23.05
2019-02-19T16:27:44.054Z,26.80
2019-02-19T16:32:51.254Z,20.72
2019-02-19T16:38:04.440Z,23.62
2019-02-19T16:43:17.483Z,22.75
2019-02-19T16:48:36.619Z,22.75
2019-02-19T16:53:59.039Z,19.57
2019-02-19T16:59:22.523Z,21.02
2019-02-19T17:04:38.700Z,23.02
2019-02-19T17:09:48.853Z,23.77
2019-02-19T17:14:59.287Z,30.60
2019-02-19T17:20:28.549Z,21.57
2019-02-19T17:25:32.370Z,22.50
2019-02-19T17:30:42.509Z,24.02
2019-02-19T17:35:55.146Z,20.72
2019-02-19T17:41:02.418Z,24.65
2019-02-19T17:46:09.731Z,20.02
2019-02-19T17:51:28.808Z,35.33
2019-02-19T17:56:35.957Z,21.68
2019-02-19T18:01:52.185Z,25.40
2019-02-19T18:07:15.901Z,24.67
2019-02-19T18:12:23.257Z,37.90
2019-02-19T18:17:30.450Z,31.70
2019-02-19T18:22:36.079Z,20.00
2019-02-19T18:27:41.715Z,18.48
2019-02-19T18:32:47.353Z,17.15
2019-02-19T18:37:52.842Z,20.10
2019-02-19T18:42:58.339Z,22.25
2019-02-19T18:48:03.978Z,20.95
2019-02-19T18:53:09.613Z,23.20
2019-02-19T18:58:15.109Z,25.70
2019-02-19T19:03:20.660Z,28.80
2019-02-19T19:08:26.291Z,27.30
2019-02-19T19:13:31.929Z,29.90
2019-02-19T19:18:37.619Z,29.15
2019-02-19T19:23:43.262Z,25.55
2019-02-19T19:28:48.752Z,26.05
2019-02-19T19:33:54.374Z,21.10
2019-02-19T19:39:00.006Z,13.13
2019-02-19T19:44:05.649Z,15.30
2019-02-19T19:49:12.078Z,10.03
2019-02-19T19:54:17.732Z,11.00
2019-02-19T19:59:24.321Z,9.43
2019-02-19T20:04:29.928Z,7.15
2019-02-19T20:09:35.597Z,3.90
2019-02-19T20:14:41.244Z,3.15
2019-02-19T20:19:46.946Z,6.62
2019-02-19T20:24:52.654Z,6.47
2019-02-19T20:29:59.544Z,5.62
2019-02-19T20:35:07.709Z,5.58
2019-02-19T20:40:13.449Z,4.97
2019-02-19T20:45:20.328Z,4.12
2019-02-19T20:50:26.025Z,3.98
2019-02-19T20:55:36.958Z,4.28
2019-02-19T21:00:38.816Z,4.55
2019-02-19T21:05:45.834Z,3.27
2019-02-19T21:10:51.322Z,3.05
2019-02-19T21:15:57.013Z,3.75
2019-02-19T21:21:02.590Z,3.55
2019-02-19T21:26:08.182Z,5.17
2019-02-19T21:31:13.735Z,4.83
2019-02-19T21:36:19.367Z,8.08
2019-02-19T21:41:24.991Z,5.90
2019-02-19T21:46:30.542Z,6.92
2019-02-19T21:51:36.752Z,7.75
2019-02-19T21:56:42.454Z,7.75
2019-02-19T22:01:48.016Z,8.60
2019-02-19T22:06:53.686Z,9.98
2019-02-19T22:11:59.244Z,10.23
2019-02-19T22:17:04.743Z,11.30
2019-02-19T22:22:12.165Z,10.23
2019-02-19T22:27:17.660Z,11.28
2019-02-19T22:32:23.144Z,12.33
2019-02-19T22:37:28.705Z,11.95
2019-02-19T22:42:34.285Z,13.18
2019-02-19T22:47:39.816Z,12.82
2019-02-19T22:52:45.469Z,12.88
2019-02-19T22:57:51.044Z,13.05
2019-02-19T23:02:56.830Z,15.40
2019-02-19T23:08:02.431Z,15.30
2019-02-19T23:13:09.514Z,16.87
2019-02-19T23:18:16.167Z,17.40
2019-02-19T23:23:21.767Z,17.60
2019-02-19T23:28:27.360Z,18.85
2019-02-19T23:33:32.981Z,17.82
2019-02-19T23:38:38.536Z,20.75
2019-02-19T23:43:45.256Z,20.15
2019-02-19T23:48:50.815Z,18.05
2019-02-19T23:53:56.430Z,19.57
2019-02-19T23:59:01.945Z,19.60
